createdAt,value
2018-04-15T00:02:16.911Z,126.33
2018-04-15T00:04:44.658Z,123.60
2018-04-15T00:07:12.185Z,128.33
2018-04-15T00:09:40.057Z,123.43
2018-04-15T00:12:07.565Z,132.77
2018-04-15T00:14:35.091Z,129.50
2018-04-15T00:17:02.782Z,128.43
2018-04-15T00:19:30.325Z,135.77
2018-04-15T00:21:57.854Z,127.53
2018-04-15T00:24:25.543Z,125.50
2018-04-15T00:26:53.308Z,124.40
2018-04-15T00:29:21.072Z,132.53
2018-04-15T00:31:48.829Z,112.80
2018-04-15T00:34:16.349Z,131.83
2018-04-15T00:36:44.040Z,126.70
2018-04-15T00:39:11.543Z,120.33
2018-04-15T00:41:39.075Z,135.37
2018-04-15T00:44:06.599Z,130.00
2018-04-15T00:46:34.190Z,127.60
2018-04-15T00:49:01.703Z,130.00
2018-04-15T00:51:29.410Z,133.40
2018-04-15T00:54:08.807Z,125.80
2018-04-15T00:56:36.326Z,122.93
2018-04-15T00:59:04.035Z,122.50
2018-04-15T01:01:31.555Z,129.23
2018-04-15T01:03:59.103Z,127.43
2018-04-15T01:06:26.760Z,133.50
2018-04-15T01:08:54.517Z,137.93
2018-04-15T01:11:22.042Z,133.97
2018-04-15T01:13:49.900Z,125.40
2018-04-15T01:16:17.406Z,128.33
2018-04-15T01:18:44.940Z,137.47
2018-04-15T01:21:13.247Z,137.13
2018-04-15T01:23:40.765Z,130.90
2018-04-15T01:26:08.538Z,126.93
2018-04-15T01:28:36.333Z,129.20
2018-04-15T01:31:04.077Z,134.90
2018-04-15T01:33:31.836Z,125.80
2018-04-15T01:35:59.346Z,128.60
2018-04-15T01:38:27.049Z,125.90
2018-04-15T01:40:54.566Z,142.97
2018-04-15T01:43:22.273Z,127.93
2018-04-15T01:45:49.788Z,123.53
2018-04-15T01:48:17.494Z,137.30
2018-04-15T01:50:45.257Z,131.73
2018-04-15T01:53:12.842Z,133.73
2018-04-15T01:55:40.376Z,127.43
2018-04-15T01:58:07.943Z,128.03
2018-04-15T02:00:35.466Z,131.63
2018-04-15T02:03:03.149Z,129.67
2018-04-15T02:05:30.661Z,134.27
2018-04-15T02:07:58.370Z,126.03
2018-04-15T02:10:25.924Z,129.80
2018-04-15T02:12:53.446Z,131.50
2018-04-15T02:15:21.057Z,122.67
2018-04-15T02:17:48.977Z,130.63
2018-04-15T02:20:16.533Z,125.57
2018-04-15T02:22:44.044Z,131.07
2018-04-15T02:25:11.968Z,122.77
2018-04-15T02:27:39.562Z,121.53
2018-04-15T02:30:07.335Z,129.27
2018-04-15T02:32:34.853Z,128.53
2018-04-15T02:35:02.366Z,141.10
2018-04-15T02:37:30.654Z,128.53
2018-04-15T02:39:58.555Z,122.10
2018-04-15T02:42:26.077Z,127.67
2018-04-15T02:44:53.589Z,120.00
2018-04-15T02:47:21.359Z,122.57
2018-04-15T02:49:48.994Z,143.77
2018-04-15T02:52:16.583Z,127.07
2018-04-15T02:54:44.131Z,129.43
2018-04-15T02:57:11.642Z,122.83
2018-04-15T02:59:40.136Z,134.57
2018-04-15T03:02:07.634Z,121.17
2018-04-15T03:04:35.157Z,123.30
2018-04-15T03:07:02.661Z,116.17
2018-04-15T03:09:30.182Z,128.83
2018-04-15T03:11:57.765Z,126.33
2018-04-15T03:14:25.533Z,116.40
2018-04-15T03:16:53.294Z,129.20
2018-04-15T03:19:21.058Z,132.40
2018-04-15T03:21:48.557Z,120.13
2018-04-15T03:24:16.456Z,131.70
2018-04-15T03:26:44.176Z,129.77
2018-04-15T03:29:11.807Z,137.30
2018-04-15T03:31:39.310Z,136.73
2018-04-15T03:34:06.858Z,127.63
2018-04-15T03:36:35.134Z,130.30
2018-04-15T03:39:03.323Z,129.03
2018-04-15T03:41:30.932Z,151.83
2018-04-15T03:43:58.461Z,138.07
2018-04-15T03:46:26.127Z,138.83
2018-04-15T03:48:53.911Z,132.37
2018-04-15T03:51:21.681Z,140.60
2018-04-15T03:53:49.905Z,138.30
2018-04-15T03:56:17.513Z,134.67
2018-04-15T03:58:45.270Z,132.57
2018-04-15T04:01:12.899Z,130.20
2018-04-15T04:03:40.423Z,138.93
2018-04-15T04:06:07.958Z,127.47
2018-04-15T04:08:35.694Z,131.73
2018-04-15T04:11:03.207Z,131.33
2018-04-15T04:13:30.715Z,125.23
2018-04-15T04:15:58.366Z,127.90
2018-04-15T04:18:37.814Z,120.17
2018-04-15T04:21:17.310Z,123.43
2018-04-15T04:23:56.765Z,114.13
2018-04-15T04:26:24.530Z,136.10
2018-04-15T04:28:52.234Z,136.40
2018-04-15T04:31:19.763Z,134.20
2018-04-15T04:33:47.423Z,128.70
2018-04-15T04:36:14.947Z,131.17
2018-04-15T04:38:42.647Z,118.40
2018-04-15T04:41:10.441Z,122.67
2018-04-15T04:43:38.200Z,136.90
2018-04-15T04:46:05.968Z,129.43
2018-04-15T04:48:33.494Z,123.27
2018-04-15T04:51:01.154Z,123.17
2018-04-15T04:53:28.669Z,125.93
2018-04-15T04:55:56.185Z,123.90
2018-04-15T04:58:23.858Z,122.00
2018-04-15T05:00:51.379Z,135.07
2018-04-15T05:03:18.883Z,117.27
2018-04-15T05:05:46.509Z,111.33
2018-04-15T05:08:14.298Z,121.50
2018-04-15T05:10:41.805Z,124.50
2018-04-15T05:13:09.603Z,117.23
2018-04-15T05:15:37.237Z,129.47
2018-04-15T05:18:04.737Z,129.23
2018-04-15T05:20:32.477Z,118.47
2018-04-15T05:22:59.993Z,136.53
2018-04-15T05:25:27.726Z,126.70
2018-04-15T05:27:55.481Z,121.20
2018-04-15T05:30:23.119Z,127.13
2018-04-15T05:32:50.681Z,139.40
2018-04-15T05:35:18.196Z,132.20
2018-04-15T05:37:45.891Z,116.63
2018-04-15T05:40:13.412Z,122.50
2018-04-15T05:42:40.914Z,115.13
2018-04-15T05:45:08.618Z,119.70
2018-04-15T05:47:36.143Z,125.30
2018-04-15T05:50:03.826Z,111.33
2018-04-15T05:52:31.329Z,118.93
2018-04-15T05:54:59.045Z,109.67
2018-04-15T05:57:26.553Z,109.37
2018-04-15T05:59:54.068Z,110.37
2018-04-15T06:02:21.718Z,101.60
2018-04-15T06:04:49.229Z,97.43
2018-04-15T06:07:16.937Z,103.67
2018-04-15T06:09:44.702Z,108.33
2018-04-15T06:12:12.479Z,102.83
2018-04-15T06:14:40.230Z,93.30
2018-04-15T06:17:07.730Z,97.43
2018-04-15T06:19:35.242Z,128.20
2018-04-15T06:22:02.754Z,97.53
2018-04-15T06:24:31.294Z,105.70
2018-04-15T06:26:59.062Z,96.23
2018-04-15T06:29:26.818Z,89.77
2018-04-15T06:31:54.581Z,96.77
2018-04-15T06:34:22.342Z,92.33
2018-04-15T06:36:49.937Z,88.40
2018-04-15T06:39:17.533Z,100.43
2018-04-15T06:41:45.317Z,106.40
2018-04-15T06:44:12.827Z,108.03
2018-04-15T06:46:40.346Z,96.73
2018-04-15T06:49:07.854Z,103.50
2018-04-15T06:51:35.421Z,98.40
2018-04-15T06:54:02.927Z,98.37
2018-04-15T06:56:30.447Z,107.57
2018-04-15T06:58:57.955Z,104.77
2018-04-15T07:01:26.252Z,93.60
2018-04-15T07:03:54.641Z,95.53
2018-04-15T07:06:22.228Z,92.87
2018-04-15T07:08:49.738Z,104.80
2018-04-15T07:11:17.551Z,95.87
2018-04-15T07:13:45.356Z,102.00
2018-04-15T07:16:13.090Z,101.13
2018-04-15T07:18:40.732Z,114.07
2018-04-15T07:21:09.302Z,91.13
2018-04-15T07:23:37.001Z,97.17
2018-04-15T07:26:04.776Z,104.90
2018-04-15T07:28:32.544Z,95.60
2018-04-15T07:31:00.058Z,102.10
2018-04-15T07:33:28.026Z,100.90
2018-04-15T07:35:55.563Z,98.70
2018-04-15T07:38:23.288Z,104.43
2018-04-15T07:40:52.018Z,106.03
2018-04-15T07:43:19.757Z,108.33
2018-04-15T07:45:47.237Z,100.90
2018-04-15T07:48:14.750Z,137.17
2018-04-15T07:50:42.429Z,123.87
2018-04-15T07:53:09.934Z,103.87
2018-04-15T07:55:37.449Z,131.40
2018-04-15T07:58:05.966Z,93.63
2018-04-15T08:00:33.481Z,108.47
2018-04-15T08:03:01.514Z,95.50
2018-04-15T08:05:29.155Z,108.73
2018-04-15T08:07:56.713Z,105.27
2018-04-15T08:10:24.523Z,112.13
2018-04-15T08:12:52.037Z,121.10
2018-04-15T08:15:19.725Z,103.60
2018-04-15T08:17:48.098Z,123.23
2018-04-15T08:20:16.045Z,112.57
2018-04-15T08:22:43.626Z,98.37
2018-04-15T08:25:11.165Z,113.07
2018-04-15T08:27:38.664Z,112.57
2018-04-15T08:30:06.216Z,108.10
2018-04-15T08:32:33.753Z,112.70
2018-04-15T08:35:01.543Z,102.67
2018-04-15T08:37:29.294Z,120.23
2018-04-15T08:39:56.806Z,107.90
2018-04-15T08:42:24.510Z,113.47
2018-04-15T08:44:52.022Z,111.17
2018-04-15T08:47:19.533Z,133.73
2018-04-15T08:49:47.144Z,116.97
2018-04-15T08:52:14.672Z,128.07
2018-04-15T08:54:42.401Z,123.23
2018-04-15T08:57:09.942Z,121.87
2018-04-15T08:59:37.462Z,127.00
2018-04-15T09:02:05.750Z,120.83
2018-04-15T09:04:33.282Z,117.57
2018-04-15T09:07:00.794Z,115.60
2018-04-15T09:09:28.383Z,135.03
2018-04-15T09:11:55.910Z,117.93
2018-04-15T09:14:23.417Z,111.00
2018-04-15T09:16:50.941Z,111.50
2018-04-15T09:19:18.507Z,120.80
2018-04-15T09:21:46.271Z,122.73
2018-04-15T09:24:14.050Z,124.47
2018-04-15T09:26:41.563Z,118.10
2018-04-15T09:29:09.086Z,116.67
2018-04-15T09:31:37.376Z,118.47
2018-04-15T09:34:05.414Z,115.27
2018-04-15T09:36:32.938Z,123.27
2018-04-15T09:39:00.623Z,118.43
2018-04-15T09:41:28.138Z,114.83
2018-04-15T09:43:55.811Z,112.10
2018-04-15T09:46:23.342Z,113.27
2018-04-15T09:48:50.846Z,111.70
2018-04-15T09:51:18.486Z,107.13
2018-04-15T09:53:46.017Z,115.37
2018-04-15T09:56:13.559Z,109.60
2018-04-15T09:58:41.846Z,116.33
2018-04-15T10:01:09.370Z,111.90
2018-04-15T10:03:37.032Z,111.97
2018-04-15T10:06:04.781Z,105.03
2018-04-15T10:08:32.314Z,112.80
2018-04-15T10:10:59.822Z,103.97
2018-04-15T10:13:27.443Z,106.30
2018-04-15T10:15:54.954Z,115.13
2018-04-15T10:18:22.475Z,99.83
2018-04-15T10:20:50.198Z,98.90
2018-04-15T10:23:17.899Z,102.70
2018-04-15T10:25:45.417Z,107.23
2018-04-15T10:28:13.122Z,106.07
2018-04-15T10:30:40.637Z,100.50
2018-04-15T10:33:08.162Z,106.83
2018-04-15T10:35:35.687Z,101.13
2018-04-15T10:38:03.262Z,110.80
2018-04-15T10:40:31.017Z,113.00
2018-04-15T10:42:58.534Z,96.47
2018-04-15T10:45:26.246Z,106.63
2018-04-15T10:47:54.015Z,121.07
2018-04-15T10:50:21.790Z,107.17
2018-04-15T10:52:49.568Z,102.47
2018-04-15T10:55:17.284Z,91.00
2018-04-15T10:57:44.807Z,96.73
2018-04-15T11:00:12.324Z,108.40
2018-04-15T11:02:39.944Z,94.83
2018-04-15T11:05:07.736Z,108.50
2018-04-15T11:07:35.492Z,98.87
2018-04-15T11:10:03.011Z,94.30
2018-04-15T11:12:30.720Z,93.13
2018-04-15T11:14:58.230Z,93.60
2018-04-15T11:17:25.746Z,90.40
2018-04-15T11:19:53.390Z,98.27
2018-04-15T11:22:20.905Z,95.90
2018-04-15T11:24:48.630Z,100.57
2018-04-15T11:27:16.155Z,96.53
2018-04-15T11:29:43.663Z,129.00
2018-04-15T11:32:11.958Z,103.83
2018-04-15T11:34:39.495Z,96.20
2018-04-15T11:37:07.000Z,100.37
2018-04-15T11:39:34.583Z,90.83
2018-04-15T11:42:02.165Z,93.73
2018-04-15T11:44:29.682Z,85.77
2018-04-15T11:46:57.190Z,98.80
2018-04-15T11:49:24.720Z,97.03
2018-04-15T11:51:52.246Z,96.53
2018-04-15T11:54:19.946Z,97.87
2018-04-15T11:56:47.463Z,107.73
2018-04-15T11:59:14.990Z,91.13
2018-04-15T12:01:43.275Z,93.93
2018-04-15T12:04:11.009Z,84.80
2018-04-15T12:06:38.511Z,87.17
2018-04-15T12:09:06.074Z,100.03
2018-04-15T12:11:33.590Z,97.80
2018-04-15T12:14:01.107Z,101.10
2018-04-15T12:16:28.882Z,91.73
2018-04-15T12:18:56.416Z,91.47
2018-04-15T12:21:23.922Z,83.20
2018-04-15T12:23:51.430Z,87.07
2018-04-15T12:26:19.351Z,103.63
2018-04-15T12:28:47.082Z,96.20
2018-04-15T12:31:14.816Z,95.60
2018-04-15T12:33:42.661Z,95.10
2018-04-15T12:36:10.141Z,96.87
2018-04-15T12:38:37.837Z,100.07
2018-04-15T12:41:05.371Z,98.77
2018-04-15T12:43:32.890Z,99.67
2018-04-15T12:46:01.289Z,102.60
2018-04-15T12:48:29.242Z,96.40
2018-04-15T12:50:56.922Z,99.23
2018-04-15T12:53:24.546Z,97.07
2018-04-15T12:55:52.058Z,102.00
2018-04-15T12:58:19.595Z,101.57
2018-04-15T13:00:47.397Z,95.53
2018-04-15T13:03:15.159Z,97.57
2018-04-15T13:05:42.676Z,96.73
2018-04-15T13:08:10.214Z,100.77
2018-04-15T13:10:38.500Z,97.03
2018-04-15T13:13:06.118Z,101.23
2018-04-15T13:15:33.645Z,101.50
2018-04-15T13:18:01.178Z,111.97
2018-04-15T13:20:28.705Z,111.50
2018-04-15T13:22:56.357Z,97.70
2018-04-15T13:25:23.881Z,106.97
2018-04-15T13:27:51.570Z,105.47
2018-04-15T13:30:19.087Z,112.77
2018-04-15T13:32:48.731Z,98.00
2018-04-15T13:35:16.398Z,99.60
2018-04-15T13:37:44.644Z,102.37
2018-04-15T13:40:12.155Z,114.83
2018-04-15T13:42:39.673Z,108.90
2018-04-15T13:45:07.223Z,227.10
2018-04-15T13:47:34.725Z,133.67
2018-04-15T13:50:02.382Z,99.83
2018-04-15T13:52:30.102Z,100.67
2018-04-15T13:54:57.893Z,97.97
2018-04-15T13:57:25.431Z,100.70
2018-04-15T13:59:52.958Z,102.37
2018-04-15T14:02:20.537Z,107.23
2018-04-15T14:04:48.062Z,103.10
2018-04-15T14:07:15.795Z,104.87
2018-04-15T14:09:43.305Z,101.27
2018-04-15T14:12:11.062Z,101.50
2018-04-15T14:14:38.975Z,91.03
2018-04-15T14:17:06.506Z,99.33
2018-04-15T14:19:34.024Z,96.53
2018-04-15T14:22:01.529Z,96.73
2018-04-15T14:24:29.045Z,92.27
2018-04-15T14:26:57.378Z,94.00
2018-04-15T14:29:25.045Z,91.43
2018-04-15T14:31:52.557Z,85.30
2018-04-15T14:34:20.074Z,90.37
2018-04-15T14:36:47.702Z,82.70
2018-04-15T14:39:15.212Z,83.17
2018-04-15T14:41:43.124Z,98.33
2018-04-15T14:44:10.632Z,98.03
2018-04-15T14:46:38.153Z,79.50
2018-04-15T14:49:05.793Z,77.40
2018-04-15T14:51:33.295Z,85.67
2018-04-15T14:54:00.844Z,89.80
2018-04-15T14:56:28.365Z,94.63
2018-04-15T14:58:56.058Z,94.43
2018-04-15T15:01:23.838Z,124.43
2018-04-15T15:03:51.596Z,97.83
2018-04-15T15:06:19.364Z,93.60
2018-04-15T15:08:47.581Z,96.93
2018-04-15T15:11:15.096Z,92.87
2018-04-15T15:13:42.632Z,97.97
2018-04-15T15:16:10.397Z,101.93
2018-04-15T15:18:37.913Z,102.77
2018-04-15T15:21:05.440Z,100.60
2018-04-15T15:23:32.964Z,91.10
2018-04-15T15:26:00.480Z,100.37
2018-04-15T15:28:28.025Z,92.33
2018-04-15T15:30:55.528Z,94.73
2018-04-15T15:33:23.042Z,100.60
2018-04-15T15:35:51.322Z,95.47
2018-04-15T15:38:19.985Z,85.43
2018-04-15T15:40:47.501Z,87.33
2018-04-15T15:43:15.156Z,88.97
2018-04-15T15:45:42.677Z,85.30
2018-04-15T15:48:10.412Z,87.50
2018-04-15T15:50:38.178Z,81.03
2018-04-15T15:53:05.701Z,87.50
2018-04-15T15:55:34.114Z,92.17
2018-04-15T15:58:01.633Z,89.00
2018-04-15T16:00:29.222Z,91.63
2018-04-15T16:02:56.740Z,91.30
2018-04-15T16:05:24.457Z,85.13
2018-04-15T16:07:52.220Z,98.80
2018-04-15T16:10:20.131Z,95.83
2018-04-15T16:12:48.671Z,88.80
2018-04-15T16:15:16.201Z,97.37
2018-04-15T16:17:43.704Z,90.50
2018-04-15T16:20:11.237Z,91.87
2018-04-15T16:22:38.752Z,82.20
2018-04-15T16:25:07.483Z,77.03
2018-04-15T16:27:35.007Z,90.97
2018-04-15T16:30:02.677Z,86.27
2018-04-15T16:32:30.182Z,88.40
2018-04-15T16:34:58.099Z,82.10
2018-04-15T16:37:25.692Z,97.93
2018-04-15T16:39:53.446Z,87.90
2018-04-15T16:42:21.994Z,81.23
2018-04-15T16:44:49.619Z,89.33
2018-04-15T16:47:17.129Z,88.83
2018-04-15T16:49:44.639Z,92.03
2018-04-15T16:52:12.913Z,99.90
2018-04-15T16:54:41.562Z,85.77
2018-04-15T16:57:09.367Z,89.10
2018-04-15T16:59:37.090Z,87.83
2018-04-15T17:02:04.861Z,84.40
2018-04-15T17:04:32.374Z,82.63
2018-04-15T17:07:00.069Z,93.57
2018-04-15T17:09:27.796Z,81.77
2018-04-15T17:11:55.311Z,87.80
2018-04-15T17:14:23.241Z,79.23
2018-04-15T17:16:50.817Z,91.57
2018-04-15T17:19:19.406Z,88.87
2018-04-15T17:21:46.961Z,70.77
2018-04-15T17:24:14.478Z,71.43
2018-04-15T17:26:42.188Z,85.13
2018-04-15T17:29:10.342Z,79.17
2018-04-15T17:31:37.873Z,86.30
2018-04-15T17:34:05.392Z,81.13
2018-04-15T17:36:32.941Z,85.30
2018-04-15T17:39:00.463Z,85.60
2018-04-15T17:41:27.974Z,102.43
2018-04-15T17:43:56.250Z,99.87
2018-04-15T17:46:24.587Z,103.17
2018-04-15T17:48:52.094Z,94.73
2018-04-15T17:51:19.626Z,78.10
2018-04-15T17:53:47.135Z,91.77
2018-04-15T17:56:14.818Z,91.80
2018-04-15T17:58:42.336Z,83.50
2018-04-15T18:01:10.618Z,91.17
2018-04-15T18:03:38.122Z,86.70
2018-04-15T18:06:05.783Z,96.40
2018-04-15T18:08:33.301Z,102.17
2018-04-15T18:11:00.977Z,94.93
2018-04-15T18:13:28.489Z,94.10
2018-04-15T18:15:56.010Z,82.87
2018-04-15T18:18:23.639Z,130.00
2018-04-15T18:20:51.262Z,89.93
2018-04-15T18:23:18.885Z,84.13
2018-04-15T18:25:46.410Z,78.53
2018-04-15T18:28:14.222Z,85.30
2018-04-15T18:30:41.657Z,81.43
2018-04-15T18:33:09.167Z,90.43
2018-04-15T18:35:38.009Z,84.73
2018-04-15T18:38:05.809Z,92.50
2018-04-15T18:40:33.566Z,125.33
2018-04-15T18:43:01.087Z,118.33
2018-04-15T18:45:28.599Z,94.63
2018-04-15T18:47:58.184Z,85.90
2018-04-15T18:50:25.747Z,87.93
2018-04-15T18:52:53.217Z,99.37
2018-04-15T18:55:20.765Z,83.47
2018-04-15T18:57:49.121Z,87.20
2018-04-15T19:00:16.667Z,77.90
2018-04-15T19:02:44.189Z,92.03
2018-04-15T19:05:12.727Z,80.13
2018-04-15T19:07:40.255Z,91.70
2018-04-15T19:10:07.959Z,85.10
2018-04-15T19:12:35.485Z,83.17
2018-04-15T19:15:03.119Z,88.23
2018-04-15T19:17:30.647Z,87.17
2018-04-15T19:19:58.194Z,89.47
2018-04-15T19:22:25.717Z,81.03
2018-04-15T19:24:53.269Z,87.50
2018-04-15T19:27:20.771Z,152.00
2018-04-15T19:29:48.300Z,95.83
2018-04-15T19:32:15.995Z,93.63
2018-04-15T19:34:43.717Z,98.70
2018-04-15T19:37:11.510Z,92.60
2018-04-15T19:39:39.053Z,88.17
2018-04-15T19:42:06.797Z,85.93
2018-04-15T19:44:34.502Z,88.17
2018-04-15T19:47:02.262Z,91.00
2018-04-15T19:49:29.796Z,82.63
2018-04-15T19:51:57.303Z,94.40
2018-04-15T19:54:26.163Z,98.00
2018-04-15T19:56:53.930Z,97.73
2018-04-15T19:59:21.442Z,91.27
2018-04-15T20:01:49.144Z,94.73
2018-04-15T20:04:16.650Z,93.33
2018-04-15T20:06:44.363Z,87.30
2018-04-15T20:09:11.903Z,93.60
2018-04-15T20:11:39.410Z,92.00
2018-04-15T20:14:07.116Z,101.10
2018-04-15T20:16:34.583Z,87.23
2018-04-15T20:19:02.257Z,87.60
2018-04-15T20:21:29.766Z,100.93
2018-04-15T20:23:57.282Z,97.93
2018-04-15T20:26:24.938Z,91.27
2018-04-15T20:28:53.293Z,98.37
2018-04-15T20:31:21.071Z,95.53
2018-04-15T20:33:48.694Z,102.83
2018-04-15T20:36:16.209Z,105.90
2018-04-15T20:38:44.654Z,98.10
2018-04-15T20:41:12.150Z,108.17
2018-04-15T20:43:39.880Z,109.67
2018-04-15T20:46:07.389Z,107.93
2018-04-15T20:48:35.158Z,104.67
2018-04-15T20:51:02.879Z,97.13
2018-04-15T20:53:30.427Z,105.17
2018-04-15T20:55:58.072Z,115.07
2018-04-15T20:58:25.597Z,107.43
2018-04-15T21:00:53.875Z,114.10
2018-04-15T21:03:21.395Z,113.00
2018-04-15T21:05:48.970Z,116.33
2018-04-15T21:08:16.618Z,112.33
2018-04-15T21:10:44.141Z,108.00
2018-04-15T21:13:11.841Z,98.60
2018-04-15T21:15:39.365Z,113.40
2018-04-15T21:18:06.890Z,112.83
2018-04-15T21:20:35.429Z,122.60
2018-04-15T21:23:02.971Z,103.73
2018-04-15T21:25:30.623Z,113.10
2018-04-15T21:27:58.129Z,113.93
2018-04-15T21:30:25.667Z,111.70
2018-04-15T21:32:53.208Z,109.70
2018-04-15T21:35:20.727Z,109.70
2018-04-15T21:37:48.245Z,111.27
2018-04-15T21:40:15.766Z,113.57
2018-04-15T21:42:43.291Z,117.20
2018-04-15T21:45:11.574Z,110.93
2018-04-15T21:47:39.122Z,104.33
2018-04-15T21:50:06.644Z,109.17
2018-04-15T21:52:34.190Z,107.37
2018-04-15T21:55:01.812Z,102.93
2018-04-15T21:57:30.343Z,103.20
2018-04-15T21:59:57.861Z,104.00
2018-04-15T22:02:25.594Z,110.23
2018-04-15T22:04:53.114Z,109.40
2018-04-15T22:07:20.625Z,108.07
2018-04-15T22:09:48.902Z,110.77
2018-04-15T22:12:16.630Z,116.90
2018-04-15T22:14:44.202Z,122.40
2018-04-15T22:17:11.809Z,108.13
2018-04-15T22:19:39.330Z,108.53
2018-04-15T22:22:06.964Z,113.00
2018-04-15T22:24:35.462Z,120.70
2018-04-15T22:27:02.994Z,110.03
2018-04-15T22:29:30.630Z,113.60
2018-04-15T22:31:58.150Z,111.60
2018-04-15T22:34:25.676Z,118.57
2018-04-15T22:36:53.342Z,124.73
2018-04-15T22:39:20.968Z,121.80
2018-04-15T22:41:48.558Z,114.80
2018-04-15T22:44:16.330Z,113.27
2018-04-15T22:46:45.795Z,125.07
2018-04-15T22:49:19.091Z,123.63
2018-04-15T22:51:46.609Z,136.10
2018-04-15T22:54:14.250Z,126.80
2018-04-15T22:56:43.794Z,120.57
2018-04-15T22:59:11.311Z,120.20
2018-04-15T23:01:38.833Z,124.20
2018-04-15T23:04:06.529Z,120.37
2018-04-15T23:06:34.045Z,125.33
2018-04-15T23:09:01.635Z,123.33
2018-04-15T23:11:29.158Z,108.57
2018-04-15T23:13:56.669Z,127.73
2018-04-15T23:16:24.191Z,106.57
2018-04-15T23:18:51.762Z,120.63
2018-04-15T23:21:19.246Z,121.40
2018-04-15T23:23:46.998Z,132.60
2018-04-15T23:26:14.528Z,128.43
2018-04-15T23:28:42.045Z,118.17
2018-04-15T23:31:10.637Z,128.13
2018-04-15T23:33:38.170Z,136.43
2018-04-15T23:36:05.806Z,121.73
2018-04-15T23:38:33.338Z,126.27
2018-04-15T23:41:00.862Z,123.70
2018-04-15T23:43:29.273Z,121.30
2018-04-15T23:45:56.854Z,129.57
2018-04-15T23:48:24.355Z,120.63
2018-04-15T23:50:52.404Z,113.37
2018-04-15T23:53:20.146Z,124.90
2018-04-15T23:55:47.671Z,124.27
2018-04-15T23:58:15.344Z,121.47
